KRID/RID METAR and TAF weather

Enter ICAO airport designator
Station Type Date Time Source
KRID METAR 2020/03/29 11:55 UTC NOAA

KRID 291155Z AUTO 24015G21KT 10SM SCT027 SCT036 SCT043 15/15 A2966 RMK AO2


Station Type Date Time Source
KRID Decoded METAR 2020/03/29 11:55 UTC NOAA

Station name not available
Mar 29, 2020 - 07:55 AM EDT / 2020.03.29 1155 UTC
Wind: from the WSW (240 degrees) at 17 MPH (15 KT) gusting to 24 MPH (21 KT):0
Visibility: 10 mile(s):0
Sky conditions: partly cloudy
Temperature: 59 F (15 C)
Dew Point: 59 F (15 C)
Relative Humidity: 100%
Pressure (altimeter): 29.66 in. Hg (1004 hPa)
ob: KRID 291155Z AUTO 24015G21KT 10SM SCT027 SCT036 SCT043 15/15 A2966 RMK AO2
cycle: 12

Station Type Date Time Source
KRID TAF UTC NOAA

Error!

Example: see airport list